Time;durP1;ratioP1;P1;durP2;ratioP2;P2;SDS_P1;SDS_P2;PMS_P1;PMS_P2;Temp;Humidity;BMP_temperature;BMP_pressure;BME280_temperature;BME280_humidity;BME280_pressure;Samples;Min_cycle;Max_cycle;Signal;HPM_P1;HPM_P2
2023/04/05 00:02:00;;;;;;;20.37;13.53;;;;;;;;;;5111511;28;20248;-76
2023/04/05 00:04:29;;;;;;;19.00;13.43;;;;;;;;;;5111021;28;20293;-77
2023/04/05 00:06:57;;;;;;;21.40;14.37;;;;;;;;;;5111796;28;20284;-77
2023/04/05 00:09:26;;;;;;;19.33;13.07;;;;;;;;;;5111444;28;20228;-76
2023/04/05 00:11:53;;;;;;;19.90;13.87;;;;;;;;;;5111355;28;20206;-77
2023/04/05 00:14:20;;;;;;;19.73;14.60;;;;;;;;;;5111406;28;20290;-78
2023/04/05 00:16:47;;;;;;;22.57;14.67;;;;;;;;;;5111887;28;20291;-76
2023/04/05 00:19:14;;;;;;;22.90;14.40;;;;;;;;;;5111781;28;20199;-78
2023/04/05 00:21:42;;;;;;;21.87;13.77;;;;;;;;;;5111268;28;20282;-76
2023/04/05 00:24:14;;;;;;;20.27;13.20;;;;;;;;;;5111545;28;20192;-75
2023/04/05 00:26:43;;;;;;;20.77;14.77;;;;;;;;;;5111143;28;20204;-78
2023/04/05 00:29:11;;;;;;;24.00;14.37;;;;;;;;;;5111317;28;20235;-79
2023/04/05 00:31:38;;;;;;;23.33;15.50;;;;;;;;;;5110837;28;20289;-77
2023/04/05 00:34:07;;;;;;;21.73;14.47;;;;;;;;;;5111347;28;20233;-77
2023/04/05 00:36:36;;;;;;;24.50;14.30;;;;;;;;;;5111347;28;20288;-76
2023/04/05 00:39:03;;;;;;;21.77;13.83;;;;;;;;;;5111610;28;20200;-77
2023/04/05 00:41:30;;;;;;;22.10;14.50;;;;;;;;;;5110951;28;20319;-77
2023/04/05 00:43:59;;;;;;;20.73;13.60;;;;;;;;;;5111131;28;20220;-78
2023/04/05 00:46:28;;;;;;;20.10;14.37;;;;;;;;;;5111255;28;20197;-77
2023/04/05 00:48:55;;;;;;;22.17;13.77;;;;;;;;;;5110911;28;20234;-77
2023/04/05 00:51:24;;;;;;;20.30;13.73;;;;;;;;;;5111066;28;20678;-77
2023/04/05 00:53:52;;;;;;;19.50;13.13;;;;;;;;;;5111070;28;20626;-76
2023/04/05 00:56:21;;;;;;;20.50;14.03;;;;;;;;;;5110954;28;20240;-77
2023/04/05 00:58:50;;;;;;;20.20;13.57;;;;;;;;;;5111030;28;20205;-78
2023/04/05 01:01:21;;;;;;;19.70;13.93;;;;;;;;;;5110439;28;20602;-76
2023/04/05 01:03:52;;;;;;;22.17;14.63;;;;;;;;;;5111361;28;20207;-76
2023/04/05 01:06:23;;;;;;;20.60;14.63;;;;;;;;;;5111081;28;20252;-77
2023/04/05 01:08:56;;;;;;;21.57;14.83;;;;;;;;;;5110571;28;20781;-78
2023/04/05 01:11:23;;;;;;;20.37;13.83;;;;;;;;;;5110804;28;20195;-77
2023/04/05 01:13:51;;;;;;;19.60;13.23;;;;;;;;;;5111050;28;20240;-76
2023/04/05 01:16:19;;;;;;;19.60;13.90;;;;;;;;;;5114603;28;20225;-77
2023/04/05 01:18:46;;;;;;;21.37;13.80;;;;;;;;;;5114424;28;20208;-77
2023/04/05 01:21:28;;;;;;;19.70;13.07;;;;;;;;;;5114649;28;20286;-77
2023/04/05 01:24:00;;;;;;;20.50;14.50;;;;;;;;;;5113933;28;20193;-76
2023/04/05 01:26:34;;;;;;;23.30;13.63;;;;;;;;;;5114532;28;21017;-77
2023/04/05 01:29:29;;;;;;;21.23;13.73;;;;;;;;;;5114309;28;20320;-78
2023/04/05 01:32:01;;;;;;;19.53;13.17;;;;;;;;;;5114126;28;20558;-76
2023/04/05 01:34:34;;;;;;;19.07;13.10;;;;;;;;;;5113861;28;20678;-77
2023/04/05 01:37:03;;;;;;;19.23;12.47;;;;;;;;;;5114213;28;20216;-76
2023/04/05 01:39:30;;;;;;;19.80;12.77;;;;;;;;;;5113759;28;20277;-76
2023/04/05 01:42:00;;;;;;;19.43;12.97;;;;;;;;;;5114176;28;20289;-77
2023/04/05 01:44:27;;;;;;;19.47;13.03;;;;;;;;;;5114126;28;20206;-79
2023/04/05 01:46:54;;;;;;;19.43;13.47;;;;;;;;;;5114426;28;20200;-76
2023/04/05 01:49:23;;;;;;;17.37;12.57;;;;;;;;;;5108183;28;20282;-76
2023/04/05 01:51:51;;;;;;;17.53;11.97;;;;;;;;;;5104875;28;20206;-76
2023/04/05 01:54:18;;;;;;;16.37;11.43;;;;;;;;;;5113703;28;20198;-76
2023/04/05 01:56:45;;;;;;;16.40;12.10;;;;;;;;;;5114140;28;20276;-77
2023/04/05 01:59:12;;;;;;;16.70;11.67;;;;;;;;;;5113804;28;20281;-76
2023/04/05 02:01:39;;;;;;;18.27;12.30;;;;;;;;;;5113836;28;20205;-77
2023/04/05 02:04:07;;;;;;;15.90;11.87;;;;;;;;;;5114088;28;20202;-77
2023/04/05 02:06:35;;;;;;;17.20;11.63;;;;;;;;;;5113137;28;20204;-76
2023/04/05 02:09:02;;;;;;;16.97;11.37;;;;;;;;;;5113533;28;20241;-76
2023/04/05 02:11:30;;;;;;;16.93;11.87;;;;;;;;;;5113297;28;20284;-76
2023/04/05 02:13:57;;;;;;;16.77;11.13;;;;;;;;;;5113639;28;20198;-76
2023/04/05 02:16:25;;;;;;;18.17;11.40;;;;;;;;;;5112465;28;20685;-75
2023/04/05 02:18:56;;;;;;;18.87;11.93;;;;;;;;;;5112817;28;20190;-78
2023/04/05 02:21:24;;;;;;;17.40;11.47;;;;;;;;;;5113407;28;20193;-78
2023/04/05 02:23:53;;;;;;;16.93;11.77;;;;;;;;;;5113321;28;20194;-76
2023/04/05 02:26:21;;;;;;;16.67;11.63;;;;;;;;;;5113247;28;20228;-77
2023/04/05 02:28:48;;;;;;;18.37;11.53;;;;;;;;;;5113243;28;20229;-78
2023/04/05 02:31:15;;;;;;;17.73;11.67;;;;;;;;;;5113161;28;20194;-77
2023/04/05 02:33:42;;;;;;;18.13;11.87;;;;;;;;;;5113129;28;20251;-77
2023/04/05 02:36:13;;;;;;;18.40;12.00;;;;;;;;;;5112638;28;20285;-78
2023/04/05 02:38:40;;;;;;;17.90;11.23;;;;;;;;;;5112849;28;20279;-76
2023/04/05 02:41:10;;;;;;;14.97;10.90;;;;;;;;;;5112993;28;20197;-79
2023/04/05 02:43:38;;;;;;;17.57;12.20;;;;;;;;;;5113169;28;20202;-77
2023/04/05 02:46:05;;;;;;;15.80;11.80;;;;;;;;;;5112828;28;20221;-77
2023/04/05 02:48:32;;;;;;;20.27;12.80;;;;;;;;;;5112777;28;20328;-77
2023/04/05 02:50:59;;;;;;;17.53;11.97;;;;;;;;;;5112558;28;20251;-77
2023/04/05 02:53:26;;;;;;;17.63;11.47;;;;;;;;;;5112617;28;20233;-77
2023/04/05 02:55:54;;;;;;;17.10;11.57;;;;;;;;;;5112628;28;20225;-77
2023/04/05 02:58:23;;;;;;;15.30;10.27;;;;;;;;;;5112897;28;20201;-76
2023/04/05 03:00:51;;;;;;;16.70;11.00;;;;;;;;;;5112277;28;20760;-77
2023/04/05 03:03:18;;;;;;;14.83;10.13;;;;;;;;;;5112363;28;20204;-77
2023/04/05 03:05:47;;;;;;;17.27;10.33;;;;;;;;;;5112122;28;20193;-77
2023/04/05 03:08:18;;;;;;;16.90;10.77;;;;;;;;;;5112425;28;20613;-77
2023/04/05 03:10:46;;;;;;;15.20;10.37;;;;;;;;;;5112329;28;20194;-76
2023/04/05 03:13:13;;;;;;;16.10;10.77;;;;;;;;;;5112993;28;20268;-74
2023/04/05 03:15:42;;;;;;;16.73;11.03;;;;;;;;;;5112269;28;20202;-74
2023/04/05 03:18:09;;;;;;;17.53;10.57;;;;;;;;;;5112036;28;20194;-75
2023/04/05 03:20:39;;;;;;;14.47;10.30;;;;;;;;;;5111540;28;20286;-75
2023/04/05 03:23:07;;;;;;;16.40;10.17;;;;;;;;;;5112402;28;20208;-74
2023/04/05 03:25:35;;;;;;;16.17;10.50;;;;;;;;;;5112357;28;20241;-74
2023/04/05 03:28:04;;;;;;;17.00;10.17;;;;;;;;;;5111952;28;20201;-76
2023/04/05 03:30:32;;;;;;;15.27;10.00;;;;;;;;;;5112062;28;20268;-74
2023/04/05 03:33:01;;;;;;;18.73;10.80;;;;;;;;;;5111971;28;20208;-74
2023/04/05 03:35:28;;;;;;;17.67;11.00;;;;;;;;;;5111487;28;20209;-74
2023/04/05 03:37:56;;;;;;;14.03;10.13;;;;;;;;;;5111382;28;20205;-74
2023/04/05 03:40:23;;;;;;;15.97;10.63;;;;;;;;;;5112159;28;20284;-74
2023/04/05 03:42:50;;;;;;;17.10;10.63;;;;;;;;;;5111422;28;20288;-75
2023/04/05 03:45:17;;;;;;;16.00;11.00;;;;;;;;;;5111867;28;20297;-75
2023/04/05 03:47:45;;;;;;;15.23;10.47;;;;;;;;;;5111433;28;20617;-74
2023/04/05 03:50:13;;;;;;;15.00;10.03;;;;;;;;;;5111203;28;20260;-75
2023/04/05 03:52:41;;;;;;;14.57;9.83;;;;;;;;;;5112163;28;20284;-75
2023/04/05 03:55:08;;;;;;;17.10;10.73;;;;;;;;;;5111456;28;20764;-75
2023/04/05 03:57:37;;;;;;;15.50;10.47;;;;;;;;;;5111697;28;20200;-75
2023/04/05 04:00:13;;;;;;;16.00;10.00;;;;;;;;;;5111819;28;20200;-75
2023/04/05 04:02:41;;;;;;;15.93;10.00;;;;;;;;;;5111399;28;20276;-75
2023/04/05 04:05:08;;;;;;;18.00;10.93;;;;;;;;;;5111143;28;20221;-74
2023/04/05 04:07:37;;;;;;;15.73;10.53;;;;;;;;;;5111130;28;20288;-74
2023/04/05 04:10:04;;;;;;;15.73;10.67;;;;;;;;;;5111013;28;20312;-75
2023/04/05 04:12:31;;;;;;;17.30;10.67;;;;;;;;;;5111949;28;20193;-75
2023/04/05 04:14:58;;;;;;;16.37;10.30;;;;;;;;;;5111256;28;20292;-75
2023/04/05 04:17:28;;;;;;;15.87;10.03;;;;;;;;;;5111208;28;20212;-75
2023/04/05 04:19:56;;;;;;;19.03;9.97;;;;;;;;;;5107014;28;20552;-75
2023/04/05 04:22:25;;;;;;;17.17;10.17;;;;;;;;;;5100090;28;20298;-74
2023/04/05 04:24:54;;;;;;;16.30;10.10;;;;;;;;;;5090533;28;20280;-74
2023/04/05 04:27:21;;;;;;;15.73;10.00;;;;;;;;;;5090676;28;20198;-75
2023/04/05 04:29:48;;;;;;;16.33;10.43;;;;;;;;;;5091320;28;20783;-74
2023/04/05 04:32:16;;;;;;;20.07;10.70;;;;;;;;;;5090242;28;20745;-75
2023/04/05 04:34:45;;;;;;;18.57;11.13;;;;;;;;;;5090972;28;20290;-75
2023/04/05 04:37:16;;;;;;;17.03;10.93;;;;;;;;;;5091105;28;20252;-74
2023/04/05 04:39:46;;;;;;;16.60;10.20;;;;;;;;;;5091164;28;20317;-75
2023/04/05 04:42:18;;;;;;;20.47;10.93;;;;;;;;;;5090705;28;20297;-75
2023/04/05 04:44:45;;;;;;;17.13;10.83;;;;;;;;;;5091077;28;20663;-74
2023/04/05 04:47:16;;;;;;;21.40;11.60;;;;;;;;;;5090419;28;20236;-75
2023/04/05 04:49:43;;;;;;;16.17;11.40;;;;;;;;;;5092633;28;20253;-74
2023/04/05 04:52:10;;;;;;;19.80;11.23;;;;;;;;;;5094606;28;20293;-75
2023/04/05 04:54:41;;;;;;;17.97;11.87;;;;;;;;;;5094679;28;20645;-74
2023/04/05 04:57:08;;;;;;;17.97;11.93;;;;;;;;;;5095131;28;20584;-75
2023/04/05 04:59:36;;;;;;;24.10;12.70;;;;;;;;;;5094611;28;20225;-75
2023/04/05 05:02:04;;;;;;;20.03;11.83;;;;;;;;;;5094186;28;20277;-78
2023/04/05 05:04:31;;;;;;;19.23;11.93;;;;;;;;;;5094518;28;20202;-74
2023/04/05 05:06:58;;;;;;;18.63;11.73;;;;;;;;;;5094594;28;20629;-74
2023/04/05 05:09:26;;;;;;;23.67;13.90;;;;;;;;;;5094256;28;20309;-75
2023/04/05 05:11:53;;;;;;;21.47;12.63;;;;;;;;;;5094383;28;20667;-75
2023/04/05 05:14:20;;;;;;;19.77;12.40;;;;;;;;;;5111850;28;20197;-75
2023/04/05 05:16:49;;;;;;;19.50;11.90;;;;;;;;;;5114332;28;20557;-74
2023/04/05 05:19:16;;;;;;;17.40;11.37;;;;;;;;;;5114490;28;20194;-74
2023/04/05 05:21:45;;;;;;;17.83;11.83;;;;;;;;;;5114917;28;20206;-74
2023/04/05 05:24:13;;;;;;;22.00;12.27;;;;;;;;;;5114527;28;20233;-74
2023/04/05 05:26:40;;;;;;;22.37;12.40;;;;;;;;;;5114251;28;20223;-74
2023/04/05 05:29:08;;;;;;;19.83;12.57;;;;;;;;;;5114723;28;20228;-74
2023/04/05 05:31:35;;;;;;;21.10;12.37;;;;;;;;;;5113967;28;20224;-74
2023/04/05 05:34:03;;;;;;;20.03;12.87;;;;;;;;;;5114434;28;20194;-74
2023/04/05 05:36:31;;;;;;;21.00;13.37;;;;;;;;;;5110442;28;20285;-74
2023/04/05 05:38:58;;;;;;;23.47;14.00;;;;;;;;;;5102896;28;20620;-74
2023/04/05 05:41:25;;;;;;;21.63;14.00;;;;;;;;;;5105189;28;20634;-75
2023/04/05 05:43:52;;;;;;;20.13;13.70;;;;;;;;;;5111526;27;20663;-74
2023/04/05 05:46:20;;;;;;;23.77;14.17;;;;;;;;;;5112942;27;20839;-73
2023/04/05 05:48:47;;;;;;;20.57;13.57;;;;;;;;;;5113217;28;20324;-74
2023/04/05 05:51:16;;;;;;;21.47;13.40;;;;;;;;;;5095759;28;20319;-73
2023/04/05 05:53:44;;;;;;;19.80;12.63;;;;;;;;;;5093381;28;20671;-74
2023/04/05 05:56:11;;;;;;;20.00;12.53;;;;;;;;;;5093669;28;20297;-74
2023/04/05 05:58:39;;;;;;;19.63;12.10;;;;;;;;;;5093777;28;20202;-74
2023/04/05 06:01:07;;;;;;;19.97;12.60;;;;;;;;;;5099072;28;20727;-74
2023/04/05 06:03:34;;;;;;;19.10;12.70;;;;;;;;;;5097719;28;20290;-74
2023/04/05 06:06:04;;;;;;;20.03;12.43;;;;;;;;;;5097972;28;20289;-72
2023/04/05 06:08:33;;;;;;;19.47;12.07;;;;;;;;;;5109185;28;20595;-75
2023/04/05 06:11:00;;;;;;;17.63;12.00;;;;;;;;;;5109361;27;20220;-74
2023/04/05 06:13:28;;;;;;;18.10;11.90;;;;;;;;;;5109896;28;20200;-74
2023/04/05 06:15:55;;;;;;;19.03;11.90;;;;;;;;;;5109473;28;20299;-75
2023/04/05 06:18:22;;;;;;;15.83;11.17;;;;;;;;;;5110556;28;20290;-74
2023/04/05 06:20:49;;;;;;;15.97;11.50;;;;;;;;;;5111505;28;20236;-75
2023/04/05 06:23:16;;;;;;;16.43;12.30;;;;;;;;;;5113169;27;20296;-76
2023/04/05 06:25:45;;;;;;;19.70;13.50;;;;;;;;;;5103919;28;20241;-73
2023/04/05 06:28:12;;;;;;;20.97;17.17;;;;;;;;;;5111802;28;20229;-75
2023/04/05 06:30:40;;;;;;;23.83;17.43;;;;;;;;;;5111690;28;20315;-73
2023/04/05 06:33:07;;;;;;;20.83;14.70;;;;;;;;;;5111368;28;20296;-75
2023/04/05 06:35:34;;;;;;;18.40;12.70;;;;;;;;;;5109528;28;20295;-73
2023/04/05 06:38:01;;;;;;;18.50;12.00;;;;;;;;;;5104909;28;20240;-74
2023/04/05 06:40:29;;;;;;;16.67;11.33;;;;;;;;;;5111528;28;20236;-74
2023/04/05 06:42:57;;;;;;;18.23;11.30;;;;;;;;;;5109208;28;20201;-75
2023/04/05 06:45:25;;;;;;;16.43;11.07;;;;;;;;;;5109847;28;20232;-74
2023/04/05 06:47:52;;;;;;;21.27;12.17;;;;;;;;;;5110594;28;20321;-75
2023/04/05 06:50:19;;;;;;;15.93;11.83;;;;;;;;;;5108436;28;20230;-73
2023/04/05 06:52:46;;;;;;;19.40;12.13;;;;;;;;;;5093973;28;20284;-75
2023/04/05 06:55:14;;;;;;;18.30;11.80;;;;;;;;;;5110894;28;20231;-74
2023/04/05 06:57:41;;;;;;;17.57;12.27;;;;;;;;;;5110974;28;20240;-76
2023/04/05 07:00:11;;;;;;;16.43;10.90;;;;;;;;;;5111171;28;20685;-75
2023/04/05 07:02:39;;;;;;;18.23;11.90;;;;;;;;;;5111300;28;20284;-76
2023/04/05 07:05:07;;;;;;;20.07;14.33;;;;;;;;;;5109900;28;20232;-75
2023/04/05 07:07:35;;;;;;;21.37;15.57;;;;;;;;;;5110580;28;20570;-75
2023/04/05 07:10:02;;;;;;;18.67;14.30;;;;;;;;;;5111016;28;20313;-75
2023/04/05 07:12:29;;;;;;;21.87;15.33;;;;;;;;;;5110384;28;20226;-75
2023/04/05 07:14:56;;;;;;;21.57;15.30;;;;;;;;;;5116288;27;20194;-76
2023/04/05 07:17:25;;;;;;;16.20;10.23;;;;;;;;;;5110591;28;20733;-76
2023/04/05 07:19:52;;;;;;;13.27;9.20;;;;;;;;;;5110796;28;20211;-76
2023/04/05 07:22:19;;;;;;;13.63;10.17;;;;;;;;;;5110141;28;20285;-76
2023/04/05 07:24:47;;;;;;;14.13;9.93;;;;;;;;;;5110479;28;20649;-76
2023/04/05 07:27:14;;;;;;;11.03;9.70;;;;;;;;;;5109833;28;20258;-76
2023/04/05 07:29:42;;;;;;;13.17;9.50;;;;;;;;;;5110520;28;20282;-77
2023/04/05 07:32:09;;;;;;;15.77;9.50;;;;;;;;;;5110747;28;20208;-77
2023/04/05 07:34:38;;;;;;;13.23;9.50;;;;;;;;;;5110539;28;20292;-75
2023/04/05 07:37:06;;;;;;;15.33;10.07;;;;;;;;;;5109630;28;20228;-75
2023/04/05 07:39:33;;;;;;;12.17;9.50;;;;;;;;;;5110597;28;20233;-75
2023/04/05 07:42:00;;;;;;;11.50;8.93;;;;;;;;;;5108843;28;20205;-75
2023/04/05 07:44:28;;;;;;;13.40;9.50;;;;;;;;;;5103840;28;20287;-76
2023/04/05 07:46:55;;;;;;;13.20;9.33;;;;;;;;;;5107035;28;20225;-76
2023/04/05 07:49:25;;;;;;;12.63;9.07;;;;;;;;;;5110731;28;20239;-76
2023/04/05 07:51:56;;;;;;;15.00;9.17;;;;;;;;;;5109841;28;20235;-75
2023/04/05 07:54:23;;;;;;;17.53;11.80;;;;;;;;;;5110635;28;20203;-76
2023/04/05 07:56:51;;;;;;;15.67;10.13;;;;;;;;;;5110395;28;20201;-76
2023/04/05 07:59:18;;;;;;;13.03;9.97;;;;;;;;;;5109879;28;20202;-75
2023/04/05 08:01:45;;;;;;;12.77;10.00;;;;;;;;;;5110610;28;20296;-77
2023/04/05 08:04:12;;;;;;;14.00;9.37;;;;;;;;;;5110114;28;20228;-77
2023/04/05 08:06:39;;;;;;;11.43;7.60;;;;;;;;;;5109545;28;20292;-77
2023/04/05 08:09:08;;;;;;;11.27;7.67;;;;;;;;;;5103551;28;20217;-75
2023/04/05 08:11:35;;;;;;;13.17;7.50;;;;;;;;;;5109560;28;20316;-77
2023/04/05 08:14:03;;;;;;;11.50;7.63;;;;;;;;;;5111616;27;20699;-76
2023/04/05 08:16:31;;;;;;;11.67;7.30;;;;;;;;;;5116286;28;20296;-76
2023/04/05 08:18:58;;;;;;;14.73;9.10;;;;;;;;;;5108791;28;20217;-75
2023/04/05 08:21:25;;;;;;;12.03;8.43;;;;;;;;;;5107587;28;20291;-75
2023/04/05 08:23:52;;;;;;;13.53;8.43;;;;;;;;;;5110266;28;20593;-76
2023/04/05 08:26:21;;;;;;;11.93;8.47;;;;;;;;;;5114072;28;20288;-75
2023/04/05 08:28:48;;;;;;;11.47;8.03;;;;;;;;;;5113992;28;20197;-76
2023/04/05 08:31:15;;;;;;;12.93;7.60;;;;;;;;;;5113658;28;20689;-76
2023/04/05 08:33:43;;;;;;;9.73;7.40;;;;;;;;;;5114319;28;20194;-77
2023/04/05 08:36:10;;;;;;;11.33;7.30;;;;;;;;;;5111774;28;20230;-76
2023/04/05 08:38:37;;;;;;;9.10;7.30;;;;;;;;;;5113833;28;20233;-76
2023/04/05 08:41:09;;;;;;;11.20;6.90;;;;;;;;;;5105801;28;20284;-74
2023/04/05 08:43:42;;;;;;;12.07;8.07;;;;;;;;;;5106817;28;20572;-75
2023/04/05 08:46:10;;;;;;;11.33;7.80;;;;;;;;;;5113796;28;20292;-77
2023/04/05 08:48:37;;;;;;;9.27;7.47;;;;;;;;;;5114344;28;20958;-75
2023/04/05 08:51:04;;;;;;;9.93;7.50;;;;;;;;;;5113251;28;20320;-75
2023/04/05 08:53:31;;;;;;;12.70;8.10;;;;;;;;;;5113379;28;20221;-75
2023/04/05 08:56:00;;;;;;;10.10;7.40;;;;;;;;;;5113968;28;20281;-74
2023/04/05 08:58:29;;;;;;;9.70;7.83;;;;;;;;;;5109281;28;20221;-77
2023/04/05 09:00:58;;;;;;;10.77;7.60;;;;;;;;;;5112311;28;20197;-77
2023/04/05 09:03:26;;;;;;;11.40;8.43;;;;;;;;;;5113582;28;20301;-77
2023/04/05 09:05:54;;;;;;;10.93;8.47;;;;;;;;;;5113093;28;20243;-76
2023/04/05 09:08:21;;;;;;;10.53;7.83;;;;;;;;;;5112981;28;20259;-76
2023/04/05 09:10:51;;;;;;;10.93;7.53;;;;;;;;;;5113581;28;20312;-77
2023/04/05 09:13:18;;;;;;;10.60;7.83;;;;;;;;;;5113246;28;20208;-78
2023/04/05 09:15:46;;;;;;;11.13;8.63;;;;;;;;;;5118288;27;20288;-77
2023/04/05 09:18:14;;;;;;;10.83;8.73;;;;;;;;;;5113440;28;20198;-77
2023/04/05 09:20:41;;;;;;;11.63;9.03;;;;;;;;;;5113285;28;20293;-77
2023/04/05 09:23:09;;;;;;;12.50;8.33;;;;;;;;;;5112389;28;20267;-77
2023/04/05 09:25:38;;;;;;;14.27;9.60;;;;;;;;;;5112734;28;20225;-77
2023/04/05 09:28:06;;;;;;;11.20;9.20;;;;;;;;;;5112842;28;20224;-77
2023/04/05 09:30:35;;;;;;;11.50;8.57;;;;;;;;;;5113369;28;20234;-77
2023/04/05 09:33:03;;;;;;;12.90;9.03;;;;;;;;;;5112091;28;20296;-77
2023/04/05 09:35:33;;;;;;;10.90;8.83;;;;;;;;;;5111599;28;20296;-76
2023/04/05 09:38:01;;;;;;;12.00;9.40;;;;;;;;;;5112123;28;20265;-76
2023/04/05 09:40:41;;;;;;;12.97;10.13;;;;;;;;;;5112042;28;20206;-76
2023/04/05 09:43:08;;;;;;;13.57;10.67;;;;;;;;;;5111956;28;20200;-77
2023/04/05 09:45:40;;;;;;;15.10;11.27;;;;;;;;;;5112245;28;20753;-76
2023/04/05 09:48:07;;;;;;;15.23;11.13;;;;;;;;;;5112769;28;20229;-75
2023/04/05 09:50:36;;;;;;;15.77;11.50;;;;;;;;;;5112732;28;20222;-77
2023/04/05 09:53:07;;;;;;;16.60;12.07;;;;;;;;;;5111383;28;20205;-75
2023/04/05 09:55:34;;;;;;;14.87;12.03;;;;;;;;;;5112646;28;20251;-75
2023/04/05 09:58:02;;;;;;;14.90;11.23;;;;;;;;;;5112169;28;20250;-76
2023/04/05 10:00:30;;;;;;;11.83;10.20;;;;;;;;;;5112913;28;20301;-77
2023/04/05 10:02:57;;;;;;;13.30;10.93;;;;;;;;;;5111001;28;20583;-78
2023/04/05 10:05:25;;;;;;;15.67;10.50;;;;;;;;;;5111804;28;20200;-77
2023/04/05 10:07:54;;;;;;;14.33;10.23;;;;;;;;;;5109491;28;20277;-78
2023/04/05 10:10:22;;;;;;;12.10;9.13;;;;;;;;;;5107247;28;20292;-77
2023/04/05 10:12:50;;;;;;;12.70;10.33;;;;;;;;;;5112113;28;20194;-78
2023/04/05 10:15:18;;;;;;;14.37;9.80;;;;;;;;;;5120416;27;20194;-77
2023/04/05 10:17:50;;;;;;;11.97;9.30;;;;;;;;;;5100366;28;20293;-76
2023/04/05 10:20:18;;;;;;;15.02;9.25;;;;;;;;;;5111422;28;20665;-77
2023/04/05 10:22:53;;;;;;;11.43;9.18;;;;;;;;;;5112179;28;20583;-76
2023/04/05 10:25:25;;;;;;;12.48;9.98;;;;;;;;;;5105214;28;20297;-77
2023/04/05 10:27:55;;;;;;;14.82;9.95;;;;;;;;;;5111720;28;20630;-77
2023/04/05 10:30:24;;;;;;;12.80;9.25;;;;;;;;;;5111758;28;20233;-77
2023/04/05 10:33:02;;;;;;;12.88;10.02;;;;;;;;;;5112108;28;20296;-77
2023/04/05 10:35:32;;;;;;;13.20;10.05;;;;;;;;;;5109201;28;20236;-76
2023/04/05 10:38:10;;;;;;;12.68;9.38;;;;;;;;;;5111796;28;20209;-77
2023/04/05 10:40:39;;;;;;;15.35;10.73;;;;;;;;;;5111354;28;20647;-77
2023/04/05 10:43:07;;;;;;;13.13;10.20;;;;;;;;;;5111053;28;20198;-76
2023/04/05 10:45:37;;;;;;;13.98;9.50;;;;;;;;;;5111425;28;20201;-77
2023/04/05 10:48:06;;;;;;;12.70;9.85;;;;;;;;;;5106684;28;20321;-76
2023/04/05 10:50:34;;;;;;;11.93;9.30;;;;;;;;;;5110961;28;20229;-77
2023/04/05 10:53:01;;;;;;;11.38;9.10;;;;;;;;;;5111434;28;20671;-77
2023/04/05 10:55:29;;;;;;;11.82;10.10;;;;;;;;;;5110892;27;20284;-75
2023/04/05 10:57:58;;;;;;;12.88;8.82;;;;;;;;;;5102143;27;20221;-77
2023/04/05 11:00:26;;;;;;;11.10;8.82;;;;;;;;;;5106793;28;20619;-75
2023/04/05 11:02:55;;;;;;;10.00;8.63;;;;;;;;;;5103473;28;20229;-78
2023/04/05 11:05:30;;;;;;;10.88;9.15;;;;;;;;;;5102640;28;20194;-78
2023/04/05 11:08:00;;;;;;;12.55;8.75;;;;;;;;;;5106400;27;20198;-77
2023/04/05 11:10:28;;;;;;;9.35;8.02;;;;;;;;;;5108774;27;20251;-79
2023/04/05 11:13:05;;;;;;;9.98;8.20;;;;;;;;;;5109749;28;20668;-79
2023/04/05 11:15:33;;;;;;;10.02;8.40;;;;;;;;;;5110462;28;20197;-79
2023/04/05 11:18:08;;;;;;;13.07;9.00;;;;;;;;;;5110445;28;20231;-79
2023/04/05 11:20:46;;;;;;;11.80;7.97;;;;;;;;;;5111225;28;20260;-79
2023/04/05 11:23:14;;;;;;;11.02;8.52;;;;;;;;;;5111475;28;20251;-78
2023/04/05 11:25:41;;;;;;;11.77;9.23;;;;;;;;;;5111774;28;20243;-79
2023/04/05 11:28:10;;;;;;;10.20;8.63;;;;;;;;;;5104190;28;20225;-79
2023/04/05 11:30:47;;;;;;;12.23;8.63;;;;;;;;;;5109067;28;20200;-78
2023/04/05 11:33:29;;;;;;;12.02;9.43;;;;;;;;;;5109677;28;20217;-78
2023/04/05 11:36:01;;;;;;;11.93;8.77;;;;;;;;;;5108843;28;20198;-78
2023/04/05 11:38:29;;;;;;;11.43;8.90;;;;;;;;;;5113315;27;20674;-78
2023/04/05 11:41:07;;;;;;;11.32;9.02;;;;;;;;;;5105814;27;20197;-81
2023/04/05 11:43:41;;;;;;;10.50;8.82;;;;;;;;;;5110794;28;20270;-79
2023/04/05 11:46:08;;;;;;;10.07;8.57;;;;;;;;;;5107956;28;20246;-80
2023/04/05 11:48:36;;;;;;;10.80;9.63;;;;;;;;;;5113102;27;20312;-80
2023/04/05 11:51:09;;;;;;;11.05;9.23;;;;;;;;;;5109240;28;20593;-81
2023/04/05 11:53:36;;;;;;;10.75;9.43;;;;;;;;;;5110526;28;20198;-80
2023/04/05 11:56:08;;;;;;;9.57;8.50;;;;;;;;;;5112279;27;20225;-79
2023/04/05 11:58:37;;;;;;;10.85;9.25;;;;;;;;;;5110906;28;20647;-80
2023/04/05 12:01:05;;;;;;;11.63;9.23;;;;;;;;;;5111110;27;20198;-80
2023/04/05 12:03:33;;;;;;;10.48;8.88;;;;;;;;;;5104657;28;20573;-79
2023/04/05 12:06:01;;;;;;;9.63;8.63;;;;;;;;;;5110073;28;20197;-78
2023/04/05 12:08:38;;;;;;;9.68;8.15;;;;;;;;;;5110247;28;20201;-80
2023/04/05 12:11:07;;;;;;;10.25;7.32;;;;;;;;;;5109431;28;20208;-80
2023/04/05 12:13:35;;;;;;;11.85;7.93;;;;;;;;;;5109767;28;20265;-79
2023/04/05 12:16:05;;;;;;;13.38;9.10;;;;;;;;;;5110451;28;20674;-80
2023/04/05 12:18:34;;;;;;;10.40;7.57;;;;;;;;;;5104292;28;20309;-79
2023/04/05 12:21:02;;;;;;;8.88;7.88;;;;;;;;;;5109192;28;20240;-78
2023/04/05 12:23:29;;;;;;;9.95;8.60;;;;;;;;;;5109654;28;20202;-79
2023/04/05 12:25:56;;;;;;;11.57;8.63;;;;;;;;;;5107153;28;20199;-78
2023/04/05 12:28:24;;;;;;;9.75;7.90;;;;;;;;;;5109536;28;20244;-79
2023/04/05 12:30:51;;;;;;;9.50;8.50;;;;;;;;;;5108570;28;20293;-78
2023/04/05 12:33:31;;;;;;;10.45;7.82;;;;;;;;;;5107999;28;20229;-78
2023/04/05 12:35:58;;;;;;;8.60;7.53;;;;;;;;;;5109861;28;20200;-78
2023/04/05 12:38:27;;;;;;;9.85;7.65;;;;;;;;;;5103692;28;20196;-78
2023/04/05 12:41:00;;;;;;;9.13;7.68;;;;;;;;;;5107498;28;20190;-78
2023/04/05 12:43:28;;;;;;;9.63;7.70;;;;;;;;;;5107632;28;20209;-78
2023/04/05 12:45:56;;;;;;;8.50;7.68;;;;;;;;;;5109438;28;20674;-77
2023/04/05 12:48:24;;;;;;;8.63;7.72;;;;;;;;;;5110101;28;20233;-77
2023/04/05 12:50:53;;;;;;;11.10;8.40;;;;;;;;;;5110025;28;20201;-78
2023/04/05 12:53:22;;;;;;;11.73;8.40;;;;;;;;;;5106577;28;20225;-78
2023/04/05 12:55:50;;;;;;;9.00;8.10;;;;;;;;;;5110253;28;20193;-77
2023/04/05 12:58:18;;;;;;;9.35;8.05;;;;;;;;;;5110063;28;20302;-77
2023/04/05 13:00:46;;;;;;;9.10;8.20;;;;;;;;;;5109462;28;20297;-77
2023/04/05 13:03:19;;;;;;;8.60;7.72;;;;;;;;;;5108905;28;20242;-78
2023/04/05 13:05:46;;;;;;;9.48;8.10;;;;;;;;;;5100002;28;20198;-77
2023/04/05 13:08:14;;;;;;;9.85;7.85;;;;;;;;;;5109578;28;20209;-78
2023/04/05 13:10:41;;;;;;;11.30;8.27;;;;;;;;;;5111598;28;20236;-78
2023/04/05 13:13:09;;;;;;;9.30;7.28;;;;;;;;;;5112838;28;20221;-78
2023/04/05 13:15:36;;;;;;;10.15;7.85;;;;;;;;;;5108693;28;20286;-77
2023/04/05 13:18:04;;;;;;;9.05;8.10;;;;;;;;;;5113528;28;20304;-78
2023/04/05 13:20:31;;;;;;;9.98;7.90;;;;;;;;;;5113466;28;20855;-79
2023/04/05 13:22:59;;;;;;;8.95;7.93;;;;;;;;;;5110875;28;20289;-78
2023/04/05 13:25:27;;;;;;;8.90;7.82;;;;;;;;;;5110666;28;20622;-79
2023/04/05 13:27:54;;;;;;;10.68;7.95;;;;;;;;;;5113515;28;20296;-78
2023/04/05 13:30:21;;;;;;;10.18;8.25;;;;;;;;;;5112656;28;20290;-79
2023/04/05 13:32:49;;;;;;;8.65;7.75;;;;;;;;;;5113239;28;20265;-79
2023/04/05 13:35:16;;;;;;;9.82;8.40;;;;;;;;;;5112550;28;20698;-79
2023/04/05 13:37:43;;;;;;;11.00;8.02;;;;;;;;;;5113451;28;20288;-79
2023/04/05 13:40:11;;;;;;;9.95;8.13;;;;;;;;;;5112872;28;20660;-80
2023/04/05 13:42:39;;;;;;;9.48;7.95;;;;;;;;;;5112518;28;20682;-78
2023/04/05 13:45:07;;;;;;;9.90;8.90;;;;;;;;;;5112082;28;20284;-79
2023/04/05 13:47:34;;;;;;;11.20;8.30;;;;;;;;;;5112469;28;20240;-79
2023/04/05 13:50:02;;;;;;;19.58;9.05;;;;;;;;;;5112075;27;20256;-78
2023/04/05 13:52:29;;;;;;;14.77;8.80;;;;;;;;;;5112485;28;20214;-78
2023/04/05 13:54:57;;;;;;;15.48;8.50;;;;;;;;;;5110584;28;20226;-79
2023/04/05 13:57:24;;;;;;;9.10;7.50;;;;;;;;;;5107162;27;20824;-79
2023/04/05 13:59:53;;;;;;;10.77;7.95;;;;;;;;;;5113065;27;20285;-78
2023/04/05 14:02:24;;;;;;;10.10;7.60;;;;;;;;;;5115969;27;20284;-79
2023/04/05 14:04:51;;;;;;;10.98;7.80;;;;;;;;;;5119985;27;20278;-79
2023/04/05 14:07:18;;;;;;;8.70;7.60;;;;;;;;;;5119682;27;20627;-79
2023/04/05 14:09:46;;;;;;;9.27;7.82;;;;;;;;;;5112016;28;20281;-79
2023/04/05 14:12:13;;;;;;;11.13;8.43;;;;;;;;;;5111613;28;20316;-79
2023/04/05 14:14:40;;;;;;;8.40;7.60;;;;;;;;;;5112312;27;20189;-78
2023/04/05 14:17:11;;;;;;;10.57;7.80;;;;;;;;;;5111905;27;20198;-78
2023/04/05 14:19:38;;;;;;;11.73;8.30;;;;;;;;;;5111183;28;20198;-78
2023/04/05 14:22:05;;;;;;;10.90;8.30;;;;;;;;;;5110796;28;20201;-79
2023/04/05 14:24:33;;;;;;;9.75;8.18;;;;;;;;;;5111543;27;20198;-78
2023/04/05 14:27:01;;;;;;;10.77;9.00;;;;;;;;;;5110151;28;20217;-77
2023/04/05 14:29:28;;;;;;;9.77;8.38;;;;;;;;;;5110781;28;20239;-77
2023/04/05 14:31:55;;;;;;;10.50;8.32;;;;;;;;;;5109538;28;20211;-78